createdAt,value
2023-05-22T00:02:01.034Z,101252.75
2023-05-22T00:04:02.954Z,101245.38
2023-05-22T00:06:06.208Z,101241.78
2023-05-22T00:08:13.943Z,101235.25
2023-05-22T00:10:15.727Z,101239.91
2023-05-22T00:12:17.216Z,101231.66
2023-05-22T00:14:18.869Z,101235.25
2023-05-22T00:16:20.541Z,101230.81
2023-05-22T00:18:22.018Z,101232.72
2023-05-22T00:20:23.522Z,101242.66
2023-05-22T00:22:25.041Z,101241.16
2023-05-22T00:24:26.608Z,101234.63
2023-05-22T00:26:28.109Z,101230.19
2023-05-22T00:28:29.610Z,101231.22
2023-05-22T00:30:31.775Z,101243.06
2023-05-22T00:32:33.359Z,101241.16
2023-05-22T00:34:34.846Z,101239.25
2023-05-22T00:36:36.487Z,101231.88
2023-05-22T00:38:38.104Z,101236.50
2023-05-22T00:40:39.958Z,101232.09
2023-05-22T00:42:43.235Z,101235.66
2023-05-22T00:44:44.690Z,101230.19
2023-05-22T00:46:49.930Z,101237.59
2023-05-22T00:48:52.686Z,101239.47
2023-05-22T00:50:54.751Z,101233.97
2023-05-22T00:52:56.291Z,101234.84
2023-05-22T00:54:58.908Z,101233.13
2023-05-22T00:57:01.415Z,101240.31
2023-05-22T00:59:02.958Z,101232.09
2023-05-22T01:01:07.776Z,101231.22
2023-05-22T01:03:09.932Z,101230.19
2023-05-22T01:05:13.183Z,101229.34
2023-05-22T01:07:16.532Z,101230.41
2023-05-22T01:09:18.144Z,101223.00
2023-05-22T01:11:22.590Z,101220.47
2023-05-22T01:13:24.094Z,101219.00
2023-05-22T01:15:25.633Z,101227.25
2023-05-22T01:17:38.235Z,101220.91
2023-05-22T01:19:53.945Z,101218.34
2023-05-22T01:22:06.152Z,101217.53
2023-05-22T01:24:33.641Z,101216.28
2023-05-22T01:26:41.324Z,101214.56
2023-05-22T01:28:46.149Z,101211.81
2023-05-22T01:30:59.822Z,101219.84
2023-05-22T01:33:03.984Z,101223.44
2023-05-22T01:35:08.164Z,101226.38
2023-05-22T01:37:09.950Z,101213.75
2023-05-22T01:39:12.099Z,101212.03
2023-05-22T01:41:13.866Z,101216.69
2023-05-22T01:43:15.951Z,101218.78
2023-05-22T01:45:17.386Z,101218.78
2023-05-22T01:47:19.045Z,101213.28
2023-05-22T01:49:20.680Z,101217.75
2023-05-22T01:51:37.973Z,101224.28
2023-05-22T01:53:43.040Z,101221.75
2023-05-22T01:55:55.834Z,101219.22
2023-05-22T01:58:00.261Z,101220.91
2023-05-22T02:00:04.104Z,101218.16
2023-05-22T02:02:07.181Z,101220.91
2023-05-22T02:04:09.920Z,101223.66
2023-05-22T02:06:13.233Z,101224.69
2023-05-22T02:08:15.493Z,101215.63
2023-05-22T02:10:18.218Z,101215.84
2023-05-22T02:12:19.975Z,101222.16
2023-05-22T02:14:22.302Z,101223.00
2023-05-22T02:16:23.946Z,101221.34
2023-05-22T02:18:27.062Z,101220.47
2023-05-22T02:20:29.398Z,101213.94
2023-05-22T02:22:31.300Z,101222.38
2023-05-22T02:24:32.848Z,101223.22
2023-05-22T02:26:34.477Z,101216.91
2023-05-22T02:28:35.984Z,101226.16
2023-05-22T02:30:37.546Z,101217.94
2023-05-22T02:32:39.989Z,101216.28
2023-05-22T02:34:42.116Z,101217.09
2023-05-22T02:36:44.098Z,101216.28
2023-05-22T02:38:45.746Z,101209.09
2023-05-22T02:40:47.269Z,101219.22
2023-05-22T02:42:48.820Z,101212.66
2023-05-22T02:44:50.485Z,101213.75
2023-05-22T02:46:52.131Z,101213.75
2023-05-22T02:48:53.676Z,101208.25
2023-05-22T02:50:55.366Z,101204.66
2023-05-22T02:52:56.862Z,101207.38
2023-05-22T02:54:58.400Z,101204.66
2023-05-22T02:56:59.892Z,101210.13
2023-05-22T02:59:01.569Z,101206.56
2023-05-22T03:01:03.557Z,101215.81
2023-05-22T03:03:05.382Z,101210.13
2023-05-22T03:05:08.097Z,101213.09
2023-05-22T03:07:10.024Z,101215.00
2023-05-22T03:09:11.782Z,101211.41
2023-05-22T03:11:13.377Z,101215.22
2023-05-22T03:13:14.927Z,101215.22
2023-05-22T03:15:16.472Z,101212.47
2023-05-22T03:17:17.964Z,101223.44
2023-05-22T03:19:19.515Z,101222.59
2023-05-22T03:21:21.225Z,101221.75
2023-05-22T03:23:22.842Z,101201.25
2023-05-22T03:25:24.335Z,101214.59
2023-05-22T03:27:25.883Z,101216.47
2023-05-22T03:29:27.362Z,101221.94
2023-05-22T03:31:31.544Z,101210.97
2023-05-22T03:33:33.127Z,101211.16
2023-05-22T03:35:34.759Z,101212.03
2023-05-22T03:37:36.216Z,101211.16
2023-05-22T03:39:39.474Z,101212.22
2023-05-22T03:41:41.241Z,101214.97
2023-05-22T03:43:45.028Z,101210.31
2023-05-22T03:45:47.055Z,101211.16
2023-05-22T03:47:48.689Z,101205.88
2023-05-22T03:49:50.328Z,101209.69
2023-05-22T03:51:51.813Z,101207.78
2023-05-22T03:53:53.284Z,101210.53
2023-05-22T03:55:54.893Z,101207.78
2023-05-22T03:57:56.650Z,101208.84
2023-05-22T04:00:02.922Z,101204.44
2023-05-22T04:02:05.386Z,101219.19
2023-05-22T04:04:06.999Z,101217.28
2023-05-22T04:06:08.594Z,101216.66
2023-05-22T04:08:10.079Z,101220.44
2023-05-22T04:10:11.827Z,101225.09
2023-05-22T04:12:13.481Z,101225.94
2023-05-22T04:14:15.000Z,101228.66
2023-05-22T04:16:17.525Z,101231.41
2023-05-22T04:18:19.170Z,101235.84
2023-05-22T04:20:22.180Z,101227.63
2023-05-22T04:22:23.811Z,101233.31
2023-05-22T04:24:25.449Z,101229.72
2023-05-22T04:26:29.603Z,101228.88
2023-05-22T04:28:32.555Z,101230.78
2023-05-22T04:30:34.162Z,101236.28
2023-05-22T04:32:36.886Z,101239.84
2023-05-22T04:34:38.554Z,101229.91
2023-05-22T04:36:40.185Z,101228.88
2023-05-22T04:38:44.674Z,101230.78
2023-05-22T04:40:46.346Z,101239.00
2023-05-22T04:42:47.847Z,101239.84
2023-05-22T04:44:49.302Z,101247.03
2023-05-22T04:46:51.192Z,101246.16
2023-05-22T04:48:52.708Z,101247.25
2023-05-22T04:50:54.297Z,101254.59
2023-05-22T04:52:55.853Z,101249.97
2023-05-22T04:54:59.369Z,101250.19
2023-05-22T04:57:04.414Z,101252.94
2023-05-22T04:59:09.277Z,101264.72
2023-05-22T05:01:11.172Z,101265.78
2023-05-22T05:03:12.792Z,101261.78
2023-05-22T05:05:15.776Z,101258.41
2023-05-22T05:07:18.582Z,101266.66
2023-05-22T05:09:22.914Z,101267.47
2023-05-22T05:11:24.421Z,101260.28
2023-05-22T05:13:26.081Z,101254.19
2023-05-22T05:15:28.081Z,101260.50
2023-05-22T05:17:29.700Z,101256.94
2023-05-22T05:19:31.653Z,101257.97
2023-05-22T05:21:33.301Z,101257.97
2023-05-22T05:23:34.766Z,101256.94
2023-05-22T05:25:38.559Z,101256.94
2023-05-22T05:27:40.386Z,101260.72
2023-05-22T05:29:42.594Z,101258.84
2023-05-22T05:31:44.269Z,101252.50
2023-05-22T05:33:46.004Z,101255.44
2023-05-22T05:35:50.229Z,101244.47
2023-05-22T05:37:51.786Z,101249.13
2023-05-22T05:39:53.532Z,101244.88
2023-05-22T05:41:55.260Z,101248.28
2023-05-22T05:43:59.922Z,101249.53
2023-05-22T05:46:01.502Z,101245.97
2023-05-22T05:48:03.111Z,101249.75
2023-05-22T05:50:04.864Z,101246.19
2023-05-22T05:52:06.488Z,101249.75
2023-05-22T05:54:08.014Z,101252.28
2023-05-22T05:56:09.726Z,101249.75
2023-05-22T05:58:11.765Z,101244.47
2023-05-22T06:00:13.580Z,101240.69
2023-05-22T06:02:15.166Z,101245.31
2023-05-22T06:04:16.697Z,101242.56
2023-05-22T06:06:18.918Z,101243.63
2023-05-22T06:08:21.852Z,101242.78
2023-05-22T06:10:23.422Z,101241.94
2023-05-22T06:12:24.875Z,101239.19
2023-05-22T06:14:26.380Z,101238.16
2023-05-22T06:16:28.204Z,101230.97
2023-05-22T06:18:29.801Z,101241.94
2023-05-22T06:20:31.618Z,101250.16
2023-05-22T06:22:33.416Z,101248.25
2023-05-22T06:24:35.401Z,101250.16
2023-05-22T06:26:36.952Z,101257.56
2023-05-22T06:28:38.515Z,101259.22
2023-05-22T06:30:40.528Z,101251.00
2023-05-22T06:32:42.544Z,101258.38
2023-05-22T06:34:45.550Z,101261.97
2023-05-22T06:36:47.022Z,101265.56
2023-05-22T06:38:49.735Z,101262.19
2023-05-22T06:40:51.224Z,101260.31
2023-05-22T06:42:52.948Z,101262.84
2023-05-22T06:44:54.504Z,101264.72
2023-05-22T06:46:56.215Z,101263.88
2023-05-22T06:48:57.657Z,101261.97
2023-05-22T06:50:59.129Z,101269.34
2023-05-22T06:53:00.730Z,101268.53
2023-05-22T06:55:05.648Z,101270.19
2023-05-22T06:57:07.235Z,101277.59
2023-05-22T06:59:09.994Z,101275.69
2023-05-22T07:01:11.565Z,101262.84
2023-05-22T07:03:13.455Z,101263.47
2023-05-22T07:05:15.132Z,101269.16
2023-05-22T07:07:16.668Z,101269.97
2023-05-22T07:09:19.264Z,101273.59
2023-05-22T07:11:20.958Z,101271.69
2023-05-22T07:13:23.031Z,101276.13
2023-05-22T07:15:24.532Z,101278.00
2023-05-22T07:17:26.811Z,101275.25
2023-05-22T07:19:28.470Z,101278.22
2023-05-22T07:21:31.946Z,101283.47
2023-05-22T07:23:33.576Z,101285.41
2023-05-22T07:25:35.135Z,101285.41
2023-05-22T07:27:36.951Z,101280.13
2023-05-22T07:29:38.559Z,101279.28
2023-05-22T07:31:40.267Z,101289.19
2023-05-22T07:33:41.754Z,101286.44
2023-05-22T07:35:43.733Z,101286.22
2023-05-22T07:37:45.181Z,101293.41
2023-05-22T07:39:46.890Z,101295.94
2023-05-22T07:41:53.347Z,101297.00
2023-05-22T07:43:55.975Z,101300.38
2023-05-22T07:45:57.564Z,101301.22
2023-05-22T07:47:59.115Z,101307.75
2023-05-22T07:50:04.141Z,101302.25
2023-05-22T07:52:05.879Z,101302.25
2023-05-22T07:54:08.015Z,101287.06
2023-05-22T07:56:09.721Z,101305.66
2023-05-22T07:58:11.460Z,101309.66
2023-05-22T08:00:13.650Z,101303.34
2023-05-22T08:02:16.248Z,101303.34
2023-05-22T08:04:19.767Z,101301.22
2023-05-22T08:06:23.677Z,101297.22
2023-05-22T08:08:25.483Z,101298.94
2023-05-22T08:10:30.025Z,101305.25
2023-05-22T08:12:39.016Z,101297.69
2023-05-22T08:14:40.538Z,101303.16
2023-05-22T08:16:42.178Z,101303.16
2023-05-22T08:18:43.738Z,101298.31
2023-05-22T08:20:47.016Z,101308.44
2023-05-22T08:22:48.724Z,101304.63
2023-05-22T08:24:50.251Z,101305.69
2023-05-22T08:26:51.759Z,101308.22
2023-05-22T08:28:53.597Z,101309.06
2023-05-22T08:30:55.338Z,101306.31
2023-05-22T08:32:56.950Z,101311.63
2023-05-22T08:34:59.479Z,101309.72
2023-05-22T08:37:01.209Z,101311.41
2023-05-22T08:39:02.875Z,101312.91
2023-05-22T08:41:06.034Z,101310.16
2023-05-22T08:43:07.765Z,101312.91
2023-05-22T08:45:09.873Z,101316.50
2023-05-22T08:47:13.899Z,101314.78
2023-05-22T08:49:16.476Z,101316.50
2023-05-22T08:51:19.603Z,101312.69
2023-05-22T08:53:23.926Z,101312.50
2023-05-22T08:55:25.608Z,101319.84
2023-05-22T08:57:27.406Z,101318.81
2023-05-22T08:59:29.680Z,101313.94
2023-05-22T09:01:32.457Z,101313.94
2023-05-22T09:03:35.910Z,101319.00
2023-05-22T09:05:37.526Z,101330.66
2023-05-22T09:07:40.760Z,101324.13
2023-05-22T09:09:42.309Z,101324.94
2023-05-22T09:11:44.226Z,101324.94
2023-05-22T09:13:45.874Z,101328.31
2023-05-22T09:15:47.316Z,101328.31
2023-05-22T09:17:48.812Z,101323.91
2023-05-22T09:19:50.882Z,101322.81
2023-05-22T09:21:52.552Z,101322.63
2023-05-22T09:23:54.221Z,101322.19
2023-05-22T09:25:57.069Z,101324.09
2023-05-22T09:27:58.724Z,101326.66
2023-05-22T09:30:00.346Z,101331.09
2023-05-22T09:32:01.979Z,101329.19
2023-05-22T09:34:04.495Z,101331.91
2023-05-22T09:36:08.795Z,101333.84
2023-05-22T09:38:12.148Z,101331.72
2023-05-22T09:40:14.256Z,101331.72
2023-05-22T09:42:17.184Z,101335.94
2023-05-22T09:44:18.654Z,101332.34
2023-05-22T09:46:20.264Z,101329.38
2023-05-22T09:48:22.360Z,101320.94
2023-05-22T09:50:23.854Z,101324.53
2023-05-22T09:52:26.752Z,101326.22
2023-05-22T09:54:29.202Z,101326.88
2023-05-22T09:56:39.306Z,101325.81
2023-05-22T09:58:43.315Z,101323.91
2023-05-22T10:00:45.954Z,101326.44
2023-05-22T10:02:49.100Z,101318.00
2023-05-22T10:04:51.115Z,101327.06
2023-05-22T10:06:53.534Z,101313.13
2023-05-22T10:08:58.698Z,101317.56
2023-05-22T10:11:00.376Z,101317.38
2023-05-22T10:13:03.276Z,101316.31
2023-05-22T10:15:07.382Z,101317.16
2023-05-22T10:17:11.457Z,101311.66
2023-05-22T10:19:13.540Z,101305.13
2023-05-22T10:21:16.377Z,101310.41
2023-05-22T10:23:18.696Z,101309.31
2023-05-22T10:25:21.821Z,101306.38
2023-05-22T10:27:23.494Z,101308.28
2023-05-22T10:29:29.437Z,101309.97
2023-05-22T10:31:42.347Z,101313.78
2023-05-22T10:33:47.247Z,101310.19
2023-05-22T10:35:55.313Z,101307.44
2023-05-22T10:38:07.240Z,101310.81
2023-05-22T10:40:09.558Z,101313.78
2023-05-22T10:42:14.398Z,101299.22
2023-05-22T10:44:17.415Z,101305.31
2023-05-22T10:46:19.290Z,101307.03
2023-05-22T10:48:22.215Z,101298.78
2023-05-22T10:50:23.751Z,101292.22
2023-05-22T10:52:25.272Z,101298.38
2023-05-22T10:54:41.093Z,101289.25
2023-05-22T10:56:42.710Z,101287.59
2023-05-22T10:58:45.865Z,101285.69
2023-05-22T11:00:47.394Z,101286.50
2023-05-22T11:02:49.682Z,101281.03
2023-05-22T11:04:51.517Z,101277.44
2023-05-22T11:07:02.788Z,101277.44
2023-05-22T11:09:24.520Z,101278.28
2023-05-22T11:11:27.202Z,101285.47
2023-05-22T11:13:29.506Z,101278.28
2023-05-22T11:15:32.252Z,101274.28
2023-05-22T11:17:36.328Z,101283.38
2023-05-22T11:19:39.899Z,101271.53
2023-05-22T11:21:44.925Z,101274.28
2023-05-22T11:23:47.143Z,101271.09
2023-05-22T11:25:48.751Z,101273.84
2023-05-22T11:27:50.596Z,101279.34
2023-05-22T11:29:52.453Z,101272.38
2023-05-22T11:31:54.333Z,101275.31
2023-05-22T11:33:55.932Z,101277.03
2023-05-22T11:35:57.490Z,101269.66
2023-05-22T11:37:59.429Z,101274.72
2023-05-22T11:40:04.401Z,101269.84
2023-05-22T11:42:06.240Z,101277.03
2023-05-22T11:44:08.276Z,101275.13
2023-05-22T11:46:11.171Z,101253.78
2023-05-22T11:48:15.291Z,101275.13
2023-05-22T11:50:29.247Z,101282.31
2023-05-22T11:52:40.009Z,101277.66
2023-05-22T11:54:44.875Z,101281.22
2023-05-22T11:56:46.360Z,101276.41
2023-05-22T11:58:48.545Z,101278.09
2023-05-22T12:00:50.087Z,101275.56
2023-05-22T12:02:51.659Z,101275.34
2023-05-22T12:04:59.349Z,101276.19
2023-05-22T12:07:00.906Z,101269.41
2023-05-22T12:09:02.767Z,101277.44
2023-05-22T12:11:04.887Z,101271.94
2023-05-22T12:13:06.438Z,101275.56
2023-05-22T12:15:08.446Z,101271.72
2023-05-22T12:17:11.969Z,101275.34
2023-05-22T12:19:13.552Z,101271.94
2023-05-22T12:21:15.256Z,101275.56
2023-05-22T12:23:26.290Z,101270.66
2023-05-22T12:25:35.562Z,101275.13
2023-05-22T12:27:38.619Z,101272.78
2023-05-22T12:29:41.294Z,101278.94
2023-05-22T12:31:46.385Z,101275.53
2023-05-22T12:33:47.988Z,101270.03
2023-05-22T12:35:52.605Z,101267.31
2023-05-22T12:37:54.194Z,101275.75
2023-05-22T12:39:56.561Z,101275.56
2023-05-22T12:41:58.077Z,101271.97
2023-05-22T12:43:59.530Z,101270.06
2023-05-22T12:46:02.668Z,101268.59
2023-05-22T12:48:04.624Z,101277.69
2023-05-22T12:50:06.492Z,101276.19
2023-05-22T12:52:08.113Z,101277.91
2023-05-22T12:54:09.657Z,101269.66
2023-05-22T12:56:11.993Z,101279.34
2023-05-22T12:58:13.555Z,101272.81
2023-05-22T13:00:15.177Z,101269.44
2023-05-22T13:02:16.704Z,101270.50
2023-05-22T13:04:19.523Z,101281.69
2023-05-22T13:06:21.046Z,101273.03
2023-05-22T13:08:23.581Z,101275.56
2023-05-22T13:10:25.225Z,101276.19
2023-05-22T13:12:27.351Z,101272.63
2023-05-22T13:14:28.994Z,101271.53
2023-05-22T13:16:31.045Z,101267.13
2023-05-22T13:18:32.514Z,101268.78
2023-05-22T13:20:37.052Z,101271.31
2023-05-22T13:22:38.705Z,101259.91
2023-05-22T13:24:40.168Z,101273.22
2023-05-22T13:26:41.659Z,101267.94
2023-05-22T13:28:43.146Z,101261.63
2023-05-22T13:30:44.788Z,101256.34
2023-05-22T13:32:46.379Z,101240.75
2023-05-22T13:34:48.014Z,101266.69
2023-05-22T13:36:49.760Z,101266.47
2023-05-22T13:38:51.330Z,101266.25
2023-05-22T13:40:52.840Z,101264.81
2023-05-22T13:42:54.285Z,101272.38
2023-05-22T13:44:55.910Z,101266.28
2023-05-22T13:46:57.430Z,101262.50
2023-05-22T13:48:59.417Z,101269.03
2023-05-22T13:51:01.030Z,101275.34
2023-05-22T13:53:02.517Z,101275.13
2023-05-22T13:55:04.113Z,101276.84
2023-05-22T13:57:05.718Z,101271.56
2023-05-22T13:59:09.336Z,101281.50
2023-05-22T14:01:11.058Z,101281.69
2023-05-22T14:03:17.359Z,101281.03
2023-05-22T14:05:19.221Z,101257.84
2023-05-22T14:07:20.901Z,101275.56
2023-05-22T14:09:22.676Z,101282.75
2023-05-22T14:11:24.133Z,101288.84
2023-05-22T14:13:25.737Z,101278.94
2023-05-22T14:15:27.230Z,101283.38
2023-05-22T14:17:28.902Z,101285.69
2023-05-22T14:19:30.722Z,101276.19
2023-05-22T14:21:33.025Z,101280.84
2023-05-22T14:23:34.490Z,101278.09
2023-05-22T14:25:36.121Z,101286.75
2023-05-22T14:27:37.675Z,101277.69
2023-05-22T14:29:39.183Z,101282.31
2023-05-22T14:31:44.185Z,101286.75
2023-05-22T14:33:45.675Z,101279.56
2023-05-22T14:35:48.362Z,101273.44
2023-05-22T14:37:49.893Z,101252.78
2023-05-22T14:39:51.421Z,101273.03
2023-05-22T14:41:53.547Z,101275.78
2023-05-22T14:43:55.022Z,101278.94
2023-05-22T14:45:57.906Z,101277.44
2023-05-22T14:47:59.854Z,101282.72
2023-05-22T14:50:14.870Z,101271.53
2023-05-22T14:52:21.245Z,101269.88
2023-05-22T14:54:23.815Z,101274.28
2023-05-22T14:56:26.468Z,101272.41
2023-05-22T14:58:27.999Z,101278.72
2023-05-22T15:00:29.573Z,101277.03
2023-05-22T15:02:31.254Z,101275.16
2023-05-22T15:04:32.826Z,101275.38
2023-05-22T15:06:34.564Z,101272.41
2023-05-22T15:08:36.668Z,101275.16
2023-05-22T15:10:38.184Z,101270.50
2023-05-22T15:12:39.746Z,101263.09
2023-05-22T15:14:41.496Z,101264.16
2023-05-22T15:16:43.085Z,101253.19
2023-05-22T15:18:44.860Z,101242.19
2023-05-22T15:20:46.997Z,101258.03
2023-05-22T15:22:48.559Z,101262.06
2023-05-22T15:25:02.316Z,101260.16
2023-05-22T15:27:03.927Z,101257.00
2023-05-22T15:29:05.962Z,101256.78
2023-05-22T15:31:07.511Z,101258.47
2023-05-22T15:33:09.153Z,101255.28
2023-05-22T15:35:11.149Z,101259.09
2023-05-22T15:37:13.104Z,101242.22
2023-05-22T15:39:14.762Z,101255.06
2023-05-22T15:41:16.250Z,101260.34
2023-05-22T15:43:17.756Z,101256.56
2023-05-22T15:45:19.334Z,101256.78
2023-05-22T15:47:20.787Z,101261.00
2023-05-22T15:49:22.325Z,101256.56
2023-05-22T15:51:23.839Z,101261.00
2023-05-22T15:53:25.782Z,101260.16
2023-05-22T15:55:28.743Z,101258.03
2023-05-22T15:57:30.458Z,101255.09
2023-05-22T15:59:32.157Z,101241.16
2023-05-22T16:01:33.957Z,101262.69
2023-05-22T16:03:35.917Z,101263.34
2023-05-22T16:05:39.265Z,101260.59
2023-05-22T16:07:41.161Z,101259.50
2023-05-22T16:09:43.417Z,101261.44
2023-05-22T16:11:45.088Z,101262.25
2023-05-22T16:13:46.736Z,101262.25
2023-05-22T16:15:48.295Z,101263.34
2023-05-22T16:17:49.948Z,101270.91
2023-05-22T16:19:51.466Z,101260.16
2023-05-22T16:21:53.212Z,101263.53
2023-05-22T16:23:55.082Z,101267.72
2023-05-22T16:25:56.625Z,101261.19
2023-05-22T16:27:58.275Z,101266.47
2023-05-22T16:30:02.613Z,101264.56
2023-05-22T16:32:04.400Z,101266.28
2023-05-22T16:34:06.005Z,101272.59
2023-05-22T16:36:07.574Z,101273.66
2023-05-22T16:38:12.068Z,101272.19
2023-05-22T16:40:14.007Z,101281.25
2023-05-22T16:42:16.490Z,101278.72
2023-05-22T16:44:17.945Z,101267.94
2023-05-22T16:46:19.570Z,101274.09
2023-05-22T16:48:21.194Z,101274.50
2023-05-22T16:50:22.697Z,101275.34
2023-05-22T16:52:26.052Z,101269.03
2023-05-22T16:54:27.559Z,101281.88
2023-05-22T16:56:29.139Z,101262.00
2023-05-22T16:58:32.419Z,101283.34
2023-05-22T17:00:34.129Z,101292.44
2023-05-22T17:02:35.882Z,101282.28
2023-05-22T17:04:37.794Z,101287.78
2023-05-22T17:06:39.585Z,101290.53
2023-05-22T17:08:41.469Z,101295.16
2023-05-22T17:10:43.103Z,101291.56
2023-05-22T17:12:44.711Z,101294.31
2023-05-22T17:14:46.245Z,101290.53
2023-05-22T17:16:48.871Z,101287.94
2023-05-22T17:18:51.833Z,101294.31
2023-05-22T17:20:55.797Z,101294.31
2023-05-22T17:22:57.437Z,101290.69
2023-05-22T17:24:58.916Z,101306.56
2023-05-22T17:27:00.557Z,101298.13
2023-05-22T17:29:02.004Z,101309.75
2023-05-22T17:31:03.520Z,101309.97
2023-05-22T17:33:05.063Z,101314.38
2023-05-22T17:35:07.034Z,101318.81
2023-05-22T17:37:10.288Z,101327.03
2023-05-22T17:39:12.042Z,101323.66
2023-05-22T17:41:13.537Z,101325.53
2023-05-22T17:43:16.564Z,101327.22
2023-05-22T17:45:18.146Z,101331.44
2023-05-22T17:47:19.741Z,101322.81
2023-05-22T17:49:21.259Z,101337.59
2023-05-22T17:51:22.814Z,101330.81
2023-05-22T17:53:24.313Z,101337.38
2023-05-22T17:55:26.084Z,101339.06
2023-05-22T17:57:27.908Z,101342.66
2023-05-22T17:59:29.755Z,101339.72
2023-05-22T18:01:32.060Z,101347.75
2023-05-22T18:03:34.053Z,101342.47
2023-05-22T18:05:36.094Z,101341.38
2023-05-22T18:07:37.800Z,101347.94
2023-05-22T18:09:39.261Z,101354.25
2023-05-22T18:11:40.752Z,101346.03
2023-05-22T18:13:42.273Z,101347.94
2023-05-22T18:15:43.834Z,101349.81
2023-05-22T18:17:45.607Z,101360.38
2023-05-22T18:19:47.141Z,101365.81
2023-05-22T18:21:48.612Z,101362.22
2023-05-22T18:23:50.258Z,101358.59
2023-05-22T18:25:51.777Z,101368.13
2023-05-22T18:27:53.302Z,101365.16
2023-05-22T18:29:55.499Z,101358.44
2023-05-22T18:31:57.171Z,101366.81
2023-05-22T18:33:58.733Z,101362.63
2023-05-22T18:36:00.497Z,101367.25
2023-05-22T18:38:02.037Z,101372.72
2023-05-22T18:40:06.343Z,101368.75
2023-05-22T18:42:08.019Z,101374.88
2023-05-22T18:44:09.495Z,101377.41
2023-05-22T18:46:10.978Z,101371.72
2023-05-22T18:48:12.507Z,101376.81
2023-05-22T18:50:14.445Z,101374.88
2023-05-22T18:52:16.176Z,101377.47
2023-05-22T18:54:17.720Z,101376.22
2023-05-22T18:56:19.327Z,101383.78
2023-05-22T18:58:21.075Z,101379.50
2023-05-22T19:00:22.835Z,101375.25
2023-05-22T19:02:24.316Z,101372.72
2023-05-22T19:04:25.923Z,101373.81
2023-05-22T19:06:28.971Z,101380.31
2023-05-22T19:08:31.123Z,101380.13
2023-05-22T19:10:33.252Z,101384.53
2023-05-22T19:12:34.886Z,101389.59
2023-05-22T19:14:36.386Z,101382.59
2023-05-22T19:16:37.940Z,101388.50
2023-05-22T19:18:39.652Z,101396.94
2023-05-22T19:20:41.341Z,101397.13
2023-05-22T19:22:43.124Z,101396.72
2023-05-22T19:24:44.672Z,101400.69
2023-05-22T19:26:46.161Z,101393.50
2023-05-22T19:28:47.607Z,101399.84
2023-05-22T19:30:49.082Z,101401.50
2023-05-22T19:32:50.787Z,101419.41
2023-05-22T19:34:52.526Z,101414.72
2023-05-22T19:36:57.545Z,101415.41
2023-05-22T19:38:59.055Z,101426.34
2023-05-22T19:41:00.591Z,101423.16
2023-05-22T19:43:03.667Z,101425.69
2023-05-22T19:45:05.816Z,101428.22
2023-05-22T19:47:07.506Z,101428.22
2023-05-22T19:49:09.011Z,101428.22
2023-05-22T19:51:10.579Z,101436.25
2023-05-22T19:53:12.330Z,101440.06
2023-05-22T19:55:14.107Z,101450.75
2023-05-22T19:57:15.627Z,101445.06
2023-05-22T19:59:17.151Z,101438.69
2023-05-22T20:01:18.771Z,101454.94
2023-05-22T20:03:20.964Z,101460.44
2023-05-22T20:05:22.991Z,101459.78
2023-05-22T20:07:24.556Z,101465.47
2023-05-22T20:09:27.083Z,101477.47
2023-05-22T20:11:29.082Z,101470.75
2023-05-22T20:13:30.555Z,101476.22
2023-05-22T20:15:32.941Z,101482.56
2023-05-22T20:17:34.576Z,101483.41
2023-05-22T20:19:36.250Z,101488.69
2023-05-22T20:21:37.832Z,101491.44
2023-05-22T20:23:39.927Z,101496.72
2023-05-22T20:25:42.011Z,101496.91
2023-05-22T20:27:43.697Z,101508.72
2023-05-22T20:29:45.471Z,101496.06
2023-05-22T20:31:47.110Z,101509.75
2023-05-22T20:33:48.638Z,101512.28
2023-05-22T20:35:52.848Z,101516.94
2023-05-22T20:37:55.545Z,101513.34
2023-05-22T20:40:03.517Z,101520.72
2023-05-22T20:42:05.102Z,101525.16
2023-05-22T20:44:06.864Z,101519.69
2023-05-22T20:46:09.536Z,101522.41
2023-05-22T20:48:14.385Z,101528.94
2023-05-22T20:50:15.965Z,101525.34
2023-05-22T20:52:17.587Z,101522.63
2023-05-22T20:54:19.243Z,101534.41
2023-05-22T20:56:21.453Z,101530.19
2023-05-22T20:58:23.266Z,101545.78
2023-05-22T21:00:24.878Z,101543.03
2023-05-22T21:02:26.427Z,101557.66
2023-05-22T21:04:27.991Z,101542.94
2023-05-22T21:06:29.524Z,101544.88
2023-05-22T21:08:30.993Z,101547.69
2023-05-22T21:10:32.937Z,101541.41
2023-05-22T21:12:34.432Z,101544.38
2023-05-22T21:14:36.026Z,101555.59
2023-05-22T21:16:39.570Z,101556.88
2023-05-22T21:18:41.281Z,101557.34
2023-05-22T21:20:43.130Z,101550.41
2023-05-22T21:22:44.628Z,101551.03
2023-05-22T21:24:46.190Z,101559.69
2023-05-22T21:26:47.745Z,101553.84
2023-05-22T21:28:50.018Z,101554.50
2023-05-22T21:30:52.059Z,101557.69
2023-05-22T21:32:53.573Z,101551.78
2023-05-22T21:34:55.024Z,101554.13
2023-05-22T21:36:56.622Z,101560.91
2023-05-22T21:39:00.309Z,101559.44
2023-05-22T21:41:01.786Z,101563.66
2023-05-22T21:43:03.321Z,101566.88
2023-05-22T21:45:05.092Z,101568.34
2023-05-22T21:47:06.944Z,101565.19
2023-05-22T21:49:09.728Z,101568.59
2023-05-22T21:51:11.256Z,101569.22
2023-05-22T21:53:12.861Z,101572.63
2023-05-22T21:55:14.419Z,101576.00
2023-05-22T21:57:16.261Z,101572.22
2023-05-22T21:59:17.928Z,101570.94
2023-05-22T22:01:19.466Z,101570.72
2023-05-22T22:03:21.323Z,101576.88
2023-05-22T22:05:24.388Z,101581.97
2023-05-22T22:07:25.889Z,101579.84
2023-05-22T22:09:27.674Z,101559.75
2023-05-22T22:11:29.333Z,101576.47
2023-05-22T22:13:30.844Z,101575.22
2023-05-22T22:15:33.717Z,101581.34
2023-05-22T22:17:35.199Z,101584.75
2023-05-22T22:19:36.746Z,101581.81
2023-05-22T22:21:38.451Z,101576.31
2023-05-22T22:23:39.970Z,101579.69
2023-05-22T22:25:41.657Z,101579.50
2023-05-22T22:27:43.145Z,101584.78
2023-05-22T22:29:44.740Z,101591.13
2023-05-22T22:31:46.328Z,101587.13
2023-05-22T22:33:48.041Z,101583.13
2023-05-22T22:35:49.755Z,101587.53
2023-05-22T22:37:51.460Z,101585.47
2023-05-22T22:39:52.894Z,101586.94
2023-05-22T22:41:54.776Z,101579.34
2023-05-22T22:43:56.587Z,101582.09
2023-05-22T22:45:58.145Z,101590.97
2023-05-22T22:48:00.543Z,101569.41
2023-05-22T22:50:02.482Z,101587.16
2023-05-22T22:52:04.363Z,101586.13
2023-05-22T22:54:06.087Z,101596.03
2023-05-22T22:56:07.937Z,101596.91
2023-05-22T22:58:09.574Z,101604.94
2023-05-22T23:00:13.406Z,101601.09
2023-05-22T23:02:14.981Z,101596.28
2023-05-22T23:04:17.048Z,101600.69
2023-05-22T23:06:19.435Z,101606.84
2023-05-22T23:08:20.977Z,101607.47
2023-05-22T23:10:22.463Z,101603.69
2023-05-22T23:12:24.012Z,101597.31
2023-05-22T23:14:27.961Z,101604.31
2023-05-22T23:16:29.665Z,101590.56
2023-05-22T23:18:31.152Z,101595.03